Galeton, Colorado
Current Conditions -  °F | °C
As of 11:15 PM on Sunday 21 Dec 2014 (Local Time) from KGXY Reporting Station
Clear Clear  
Wind Chill: -4°   Ceiling: Unl
Heat Index:   Visibility: 10mi
Dew Point: -4°   Wind: 17mph
Humidity: 65%   Direction: 310°NW
Pressure: 29.65"   Gusts: NA
Location:  40.52°N, 104.59°W
Report Text: KGXY 220615Z AUTO 31015KT 10SM CLR 02/M04 A2965 RMK AO1
Loading
Personal Weather Stations






























Interactive Weather Map New forecast layout! Learn more

10-Day Weather Forecast

Advertisements
Track Severe Weather on mobile